sensor_id;sensor_type;location;lat;lon;timestamp;pressure;altitude;pressure_sealevel;temperature;humidity
2000;BME280;1001;48.87406500;9.59633600;2022-08-03T00:00:56;95256.72;;;21.22;54.25
2000;BME280;1001;48.87406500;9.59633600;2022-08-03T00:03:22;95253.13;;;21.13;54.47
2000;BME280;1001;48.87406500;9.59633600;2022-08-03T00:05:49;95249.69;;;21.13;54.63
2000;BME280;1001;48.87406500;9.59633600;2022-08-03T00:08:17;95246.44;;;21.16;54.33
2000;BME280;1001;48.87406500;9.59633600;2022-08-03T00:10:44;95247.38;;;21.25;54.02
2000;BME280;1001;48.87406500;9.59633600;2022-08-03T00:13:11;95243.31;;;21.27;53.88
2000;BME280;1001;48.87406500;9.59633600;2022-08-03T00:15:39;95241.78;;;21.40;53.57
2000;BME280;1001;48.87406500;9.59633600;2022-08-03T00:18:06;95237.63;;;21.34;53.85
2000;BME280;1001;48.87406500;9.59633600;2022-08-03T00:20:33;95242.56;;;21.40;53.89
2000;BME280;1001;48.87406500;9.59633600;2022-08-03T00:23:00;95240.88;;;21.31;53.98
2000;BME280;1001;48.87406500;9.59633600;2022-08-03T00:25:28;95240.38;;;21.29;53.95
2000;BME280;1001;48.87406500;9.59633600;2022-08-03T00:27:55;95238.59;;;21.24;54.02
2000;BME280;1001;48.87406500;9.59633600;2022-08-03T00:30:22;95229.53;;;21.25;53.92
2000;BME280;1001;48.87406500;9.59633600;2022-08-03T00:32:48;95235.06;;;21.29;53.54
2000;BME280;1001;48.87406500;9.59633600;2022-08-03T00:35:16;95238.53;;;21.43;53.09
2000;BME280;1001;48.87406500;9.59633600;2022-08-03T00:37:42;95232.81;;;21.36;53.82
2000;BME280;1001;48.87406500;9.59633600;2022-08-03T00:40:11;95230.75;;;21.46;53.21
2000;BME280;1001;48.87406500;9.59633600;2022-08-03T00:42:48;95220.22;;;21.41;53.52
2000;BME280;1001;48.87406500;9.59633600;2022-08-03T00:45:15;95237.03;;;21.37;53.74
2000;BME280;1001;48.87406500;9.59633600;2022-08-03T00:47:42;95227.88;;;21.29;54.12
2000;BME280;1001;48.87406500;9.59633600;2022-08-03T00:50:09;95235.34;;;21.27;53.93
2000;BME280;1001;48.87406500;9.59633600;2022-08-03T00:52:35;95225.94;;;21.16;54.36
2000;BME280;1001;48.87406500;9.59633600;2022-08-03T00:55:03;95237.28;;;21.08;54.44
2000;BME280;1001;48.87406500;9.59633600;2022-08-03T00:57:30;95236.22;;;21.04;54.68
2000;BME280;1001;48.87406500;9.59633600;2022-08-03T00:59:59;95234.03;;;20.92;55.21
2000;BME280;1001;48.87406500;9.59633600;2022-08-03T01:02:26;95224.81;;;20.85;55.56
2000;BME280;1001;48.87406500;9.59633600;2022-08-03T01:04:53;95229.94;;;20.81;55.89
2000;BME280;1001;48.87406500;9.59633600;2022-08-03T01:07:26;95236.13;;;20.77;55.83
2000;BME280;1001;48.87406500;9.59633600;2022-08-03T01:10:02;95224.78;;;20.71;56.26
2000;BME280;1001;48.87406500;9.59633600;2022-08-03T01:12:34;95227.81;;;20.65;56.69
2000;BME280;1001;48.87406500;9.59633600;2022-08-03T01:15:12;95226.38;;;20.54;57.20
2000;BME280;1001;48.87406500;9.59633600;2022-08-03T01:17:47;95228.00;;;20.50;56.99
2000;BME280;1001;48.87406500;9.59633600;2022-08-03T01:20:15;95226.44;;;20.49;57.13
2000;BME280;1001;48.87406500;9.59633600;2022-08-03T01:23:05;95216.03;;;20.52;57.01
2000;BME280;1001;48.87406500;9.59633600;2022-08-03T01:25:50;95218.97;;;20.51;57.10
2000;BME280;1001;48.87406500;9.59633600;2022-08-03T01:28:27;95215.81;;;20.49;57.15
2000;BME280;1001;48.87406500;9.59633600;2022-08-03T01:31:04;95215.47;;;20.55;56.93
2000;BME280;1001;48.87406500;9.59633600;2022-08-03T01:33:35;95216.53;;;20.54;57.29
2000;BME280;1001;48.87406500;9.59633600;2022-08-03T01:36:04;95216.31;;;20.51;57.26
2000;BME280;1001;48.87406500;9.59633600;2022-08-03T01:38:33;95211.56;;;20.48;57.69
2000;BME280;1001;48.87406500;9.59633600;2022-08-03T01:41:03;95210.50;;;20.49;57.72
2000;BME280;1001;48.87406500;9.59633600;2022-08-03T01:43:33;95206.34;;;20.43;57.78
2000;BME280;1001;48.87406500;9.59633600;2022-08-03T01:46:02;95185.09;;;20.24;58.28
2000;BME280;1001;48.87406500;9.59633600;2022-08-03T01:48:30;95206.09;;;20.20;58.90
2000;BME280;1001;48.87406500;9.59633600;2022-08-03T01:50:58;95195.88;;;20.09;59.26
2000;BME280;1001;48.87406500;9.59633600;2022-08-03T01:53:26;95193.00;;;20.05;59.08
2000;BME280;1001;48.87406500;9.59633600;2022-08-03T01:55:55;95193.38;;;19.99;59.37
2000;BME280;1001;48.87406500;9.59633600;2022-08-03T01:58:23;95198.38;;;20.00;59.74
2000;BME280;1001;48.87406500;9.59633600;2022-08-03T02:00:50;95195.44;;;20.02;59.59
2000;BME280;1001;48.87406500;9.59633600;2022-08-03T02:03:22;95191.78;;;19.98;59.74
2000;BME280;1001;48.87406500;9.59633600;2022-08-03T02:05:49;95197.81;;;20.03;60.08
2000;BME280;1001;48.87406500;9.59633600;2022-08-03T02:08:18;95201.25;;;20.27;59.17
2000;BME280;1001;48.87406500;9.59633600;2022-08-03T02:10:46;95179.22;;;20.27;59.02
2000;BME280;1001;48.87406500;9.59633600;2022-08-03T02:13:14;95193.69;;;20.53;58.87
2000;BME280;1001;48.87406500;9.59633600;2022-08-03T02:15:41;95190.38;;;20.61;58.93
2000;BME280;1001;48.87406500;9.59633600;2022-08-03T02:18:10;95198.50;;;20.70;58.76
2000;BME280;1001;48.87406500;9.59633600;2022-08-03T02:20:40;95192.47;;;20.64;59.05
2000;BME280;1001;48.87406500;9.59633600;2022-08-03T02:23:10;95194.47;;;20.72;59.21
2000;BME280;1001;48.87406500;9.59633600;2022-08-03T02:25:42;95183.50;;;20.60;59.97
2000;BME280;1001;48.87406500;9.59633600;2022-08-03T02:28:12;95189.81;;;20.64;59.61
2000;BME280;1001;48.87406500;9.59633600;2022-08-03T02:30:44;95190.19;;;20.58;60.04
2000;BME280;1001;48.87406500;9.59633600;2022-08-03T02:33:21;95182.84;;;20.50;60.54
2000;BME280;1001;48.87406500;9.59633600;2022-08-03T02:35:52;95191.41;;;20.65;60.14
2000;BME280;1001;48.87406500;9.59633600;2022-08-03T02:38:23;95188.00;;;20.78;60.08
2000;BME280;1001;48.87406500;9.59633600;2022-08-03T02:40:52;95185.19;;;20.88;58.99
2000;BME280;1001;48.87406500;9.59633600;2022-08-03T02:43:21;95183.09;;;20.85;59.34
2000;BME280;1001;48.87406500;9.59633600;2022-08-03T02:45:50;95186.97;;;20.93;58.98
2000;BME280;1001;48.87406500;9.59633600;2022-08-03T02:48:20;95181.00;;;21.01;59.22
2000;BME280;1001;48.87406500;9.59633600;2022-08-03T02:50:52;95178.97;;;21.12;58.66
2000;BME280;1001;48.87406500;9.59633600;2022-08-03T02:53:20;95183.63;;;21.20;58.83
2000;BME280;1001;48.87406500;9.59633600;2022-08-03T02:55:49;95182.34;;;21.17;59.30
2000;BME280;1001;48.87406500;9.59633600;2022-08-03T02:58:17;95177.00;;;21.17;59.95
2000;BME280;1001;48.87406500;9.59633600;2022-08-03T03:00:46;95187.25;;;21.24;60.54
2000;BME280;1001;48.87406500;9.59633600;2022-08-03T03:03:14;95185.50;;;21.33;60.96
2000;BME280;1001;48.87406500;9.59633600;2022-08-03T03:05:41;95194.38;;;21.28;62.13
2000;BME280;1001;48.87406500;9.59633600;2022-08-03T03:08:11;95176.38;;;21.39;63.37
2000;BME280;1001;48.87406500;9.59633600;2022-08-03T03:10:38;95177.94;;;21.40;64.24
2000;BME280;1001;48.87406500;9.59633600;2022-08-03T03:13:07;95180.31;;;21.41;64.46
2000;BME280;1001;48.87406500;9.59633600;2022-08-03T03:15:36;95176.84;;;21.41;64.67
2000;BME280;1001;48.87406500;9.59633600;2022-08-03T03:18:04;95186.22;;;21.38;64.48
2000;BME280;1001;48.87406500;9.59633600;2022-08-03T03:20:32;95176.16;;;21.49;64.84
2000;BME280;1001;48.87406500;9.59633600;2022-08-03T03:23:00;95176.75;;;21.46;65.22
2000;BME280;1001;48.87406500;9.59633600;2022-08-03T03:25:29;95179.22;;;21.42;64.95
2000;BME280;1001;48.87406500;9.59633600;2022-08-03T03:27:57;95181.06;;;21.42;65.39
2000;BME280;1001;48.87406500;9.59633600;2022-08-03T03:30:24;95181.84;;;21.29;65.95
2000;BME280;1001;48.87406500;9.59633600;2022-08-03T03:32:51;95176.94;;;21.49;65.71
2000;BME280;1001;48.87406500;9.59633600;2022-08-03T03:35:18;95179.22;;;21.42;65.65
2000;BME280;1001;48.87406500;9.59633600;2022-08-03T03:37:45;95178.41;;;21.42;65.78
2000;BME280;1001;48.87406500;9.59633600;2022-08-03T03:40:13;95187.50;;;21.54;66.33
2000;BME280;1001;48.87406500;9.59633600;2022-08-03T03:42:41;95175.38;;;21.62;65.64
2000;BME280;1001;48.87406500;9.59633600;2022-08-03T03:45:09;95167.00;;;21.55;65.82
2000;BME280;1001;48.87406500;9.59633600;2022-08-03T03:47:36;95179.59;;;21.63;65.24
2000;BME280;1001;48.87406500;9.59633600;2022-08-03T03:50:04;95179.03;;;21.66;65.06
2000;BME280;1001;48.87406500;9.59633600;2022-08-03T03:52:31;95176.84;;;21.68;64.88
2000;BME280;1001;48.87406500;9.59633600;2022-08-03T03:54:58;95178.53;;;21.64;64.68
2000;BME280;1001;48.87406500;9.59633600;2022-08-03T03:57:25;95178.31;;;21.60;64.91
2000;BME280;1001;48.87406500;9.59633600;2022-08-03T03:59:53;95175.38;;;21.48;64.92
2000;BME280;1001;48.87406500;9.59633600;2022-08-03T04:02:20;95182.47;;;21.53;65.28
2000;BME280;1001;48.87406500;9.59633600;2022-08-03T04:04:47;95180.97;;;21.47;65.01
2000;BME280;1001;48.87406500;9.59633600;2022-08-03T04:07:35;95183.72;;;21.42;65.40
2000;BME280;1001;48.87406500;9.59633600;2022-08-03T04:10:26;95176.06;;;21.40;65.41
2000;BME280;1001;48.87406500;9.59633600;2022-08-03T04:13:13;95181.97;;;21.37;65.27
2000;BME280;1001;48.87406500;9.59633600;2022-08-03T04:15:44;95188.16;;;21.33;65.71
2000;BME280;1001;48.87406500;9.59633600;2022-08-03T04:18:14;95183.72;;;21.42;65.24
2000;BME280;1001;48.87406500;9.59633600;2022-08-03T04:20:44;95191.13;;;21.45;65.44
2000;BME280;1001;48.87406500;9.59633600;2022-08-03T04:23:13;95179.31;;;21.51;64.93
2000;BME280;1001;48.87406500;9.59633600;2022-08-03T04:25:42;95183.06;;;21.50;64.54
2000;BME280;1001;48.87406500;9.59633600;2022-08-03T04:28:10;95181.38;;;21.54;64.31
2000;BME280;1001;48.87406500;9.59633600;2022-08-03T04:30:39;95181.97;;;21.51;64.47
2000;BME280;1001;48.87406500;9.59633600;2022-08-03T04:33:13;95187.19;;;21.56;64.06
2000;BME280;1001;48.87406500;9.59633600;2022-08-03T04:35:42;95181.59;;;21.57;64.02
2000;BME280;1001;48.87406500;9.59633600;2022-08-03T04:38:12;95192.44;;;21.61;64.01
2000;BME280;1001;48.87406500;9.59633600;2022-08-03T04:40:41;95187.91;;;21.61;64.15
2000;BME280;1001;48.87406500;9.59633600;2022-08-03T04:43:10;95189.75;;;21.75;62.34
2000;BME280;1001;48.87406500;9.59633600;2022-08-03T04:45:38;95198.53;;;21.75;63.05
2000;BME280;1001;48.87406500;9.59633600;2022-08-03T04:48:06;95193.13;;;21.80;63.20
2000;BME280;1001;48.87406500;9.59633600;2022-08-03T04:50:34;95197.97;;;21.92;63.06
2000;BME280;1001;48.87406500;9.59633600;2022-08-03T04:53:01;95200.34;;;21.93;63.31
2000;BME280;1001;48.87406500;9.59633600;2022-08-03T04:55:29;95199.66;;;22.01;62.92
2000;BME280;1001;48.87406500;9.59633600;2022-08-03T04:57:55;95204.69;;;22.03;62.85
2000;BME280;1001;48.87406500;9.59633600;2022-08-03T05:00:23;95206.56;;;22.02;63.00
2000;BME280;1001;48.87406500;9.59633600;2022-08-03T05:02:49;95204.19;;;22.14;62.80
2000;BME280;1001;48.87406500;9.59633600;2022-08-03T05:05:18;95203.00;;;22.07;63.34
2000;BME280;1001;48.87406500;9.59633600;2022-08-03T05:07:46;95196.97;;;22.01;64.77
2000;BME280;1001;48.87406500;9.59633600;2022-08-03T05:10:13;95203.69;;;21.99;64.90
2000;BME280;1001;48.87406500;9.59633600;2022-08-03T05:12:40;95208.31;;;22.07;64.31
2000;BME280;1001;48.87406500;9.59633600;2022-08-03T05:15:08;95205.94;;;22.19;64.32
2000;BME280;1001;48.87406500;9.59633600;2022-08-03T05:17:34;95206.13;;;22.22;63.79
2000;BME280;1001;48.87406500;9.59633600;2022-08-03T05:20:03;95215.41;;;22.25;63.69
2000;BME280;1001;48.87406500;9.59633600;2022-08-03T05:22:30;95210.75;;;22.30;64.79
2000;BME280;1001;48.87406500;9.59633600;2022-08-03T05:24:57;95218.75;;;22.30;63.07
2000;BME280;1001;48.87406500;9.59633600;2022-08-03T05:27:26;95217.78;;;22.26;63.07
2000;BME280;1001;48.87406500;9.59633600;2022-08-03T05:29:52;95213.41;;;22.30;63.58
2000;BME280;1001;48.87406500;9.59633600;2022-08-03T05:32:19;95219.72;;;22.34;63.77
2000;BME280;1001;48.87406500;9.59633600;2022-08-03T05:34:45;95221.22;;;22.41;63.91
2000;BME280;1001;48.87406500;9.59633600;2022-08-03T05:37:12;95217.44;;;22.42;63.59
2000;BME280;1001;48.87406500;9.59633600;2022-08-03T05:39:39;95220.00;;;22.47;63.49
2000;BME280;1001;48.87406500;9.59633600;2022-08-03T05:42:07;95227.78;;;22.57;64.27
2000;BME280;1001;48.87406500;9.59633600;2022-08-03T05:44:34;95226.59;;;22.63;63.69
2000;BME280;1001;48.87406500;9.59633600;2022-08-03T05:47:03;95223.50;;;22.69;63.30
2000;BME280;1001;48.87406500;9.59633600;2022-08-03T05:49:29;95222.31;;;22.75;62.86
2000;BME280;1001;48.87406500;9.59633600;2022-08-03T05:51:56;95224.75;;;22.85;62.79
2000;BME280;1001;48.87406500;9.59633600;2022-08-03T05:54:22;95224.81;;;22.94;62.56
2000;BME280;1001;48.87406500;9.59633600;2022-08-03T05:56:49;95218.25;;;23.00;62.01
2000;BME280;1001;48.87406500;9.59633600;2022-08-03T05:59:17;95222.75;;;23.13;61.83
2000;BME280;1001;48.87406500;9.59633600;2022-08-03T06:01:44;95224.84;;;23.25;61.43
2000;BME280;1001;48.87406500;9.59633600;2022-08-03T06:04:10;95235.66;;;23.42;60.77
2000;BME280;1001;48.87406500;9.59633600;2022-08-03T06:06:37;95230.84;;;23.52;61.14
2000;BME280;1001;48.87406500;9.59633600;2022-08-03T06:09:04;95232.00;;;23.68;60.84
2000;BME280;1001;48.87406500;9.59633600;2022-08-03T06:11:30;95228.94;;;23.84;58.60
2000;BME280;1001;48.87406500;9.59633600;2022-08-03T06:13:57;95236.63;;;24.16;57.04
2000;BME280;1001;48.87406500;9.59633600;2022-08-03T06:16:25;95231.84;;;24.69;56.64
2000;BME280;1001;48.87406500;9.59633600;2022-08-03T06:18:51;95239.28;;;25.15;55.61
2000;BME280;1001;48.87406500;9.59633600;2022-08-03T06:21:18;95240.56;;;25.81;53.07
2000;BME280;1001;48.87406500;9.59633600;2022-08-03T06:23:45;95236.34;;;26.09;52.04
2000;BME280;1001;48.87406500;9.59633600;2022-08-03T06:26:12;95234.97;;;26.32;51.49
2000;BME280;1001;48.87406500;9.59633600;2022-08-03T06:28:39;95235.25;;;26.89;50.36
2000;BME280;1001;48.87406500;9.59633600;2022-08-03T06:31:05;95247.34;;;27.16;49.34
2000;BME280;1001;48.87406500;9.59633600;2022-08-03T06:33:33;95246.34;;;27.41;49.83
2000;BME280;1001;48.87406500;9.59633600;2022-08-03T06:36:00;95249.31;;;27.60;48.88
2000;BME280;1001;48.87406500;9.59633600;2022-08-03T06:38:27;95246.47;;;27.90;48.07
2000;BME280;1001;48.87406500;9.59633600;2022-08-03T06:40:53;95247.91;;;27.87;46.90
2000;BME280;1001;48.87406500;9.59633600;2022-08-03T06:43:20;95251.84;;;28.02;48.12
2000;BME280;1001;48.87406500;9.59633600;2022-08-03T06:45:46;95242.78;;;28.06;45.93
2000;BME280;1001;48.87406500;9.59633600;2022-08-03T06:48:13;95257.34;;;28.05;46.28
2000;BME280;1001;48.87406500;9.59633600;2022-08-03T06:50:41;95257.47;;;28.21;46.41
2000;BME280;1001;48.87406500;9.59633600;2022-08-03T06:53:08;95261.28;;;28.44;45.73
2000;BME280;1001;48.87406500;9.59633600;2022-08-03T06:55:35;95264.75;;;28.57;46.08
2000;BME280;1001;48.87406500;9.59633600;2022-08-03T06:58:02;95262.84;;;28.57;45.27
2000;BME280;1001;48.87406500;9.59633600;2022-08-03T07:00:29;95266.44;;;28.61;45.57
2000;BME280;1001;48.87406500;9.59633600;2022-08-03T07:02:55;95265.84;;;28.80;45.05
2000;BME280;1001;48.87406500;9.59633600;2022-08-03T07:05:22;95268.13;;;28.66;45.62
2000;BME280;1001;48.87406500;9.59633600;2022-08-03T07:07:53;95265.66;;;28.61;45.43
2000;BME280;1001;48.87406500;9.59633600;2022-08-03T07:10:21;95272.03;;;28.68;43.74
2000;BME280;1001;48.87406500;9.59633600;2022-08-03T07:12:47;95271.00;;;28.85;45.66
2000;BME280;1001;48.87406500;9.59633600;2022-08-03T07:15:14;95275.44;;;28.65;44.77
2000;BME280;1001;48.87406500;9.59633600;2022-08-03T07:17:42;95273.69;;;28.85;43.86
2000;BME280;1001;48.87406500;9.59633600;2022-08-03T07:20:10;95270.78;;;28.78;43.97
2000;BME280;1001;48.87406500;9.59633600;2022-08-03T07:22:37;95278.53;;;28.91;45.18
2000;BME280;1001;48.87406500;9.59633600;2022-08-03T07:25:06;95266.44;;;28.61;44.38
2000;BME280;1001;48.87406500;9.59633600;2022-08-03T07:27:33;95275.94;;;28.83;43.96
2000;BME280;1001;48.87406500;9.59633600;2022-08-03T07:30:00;95274.81;;;28.96;42.82
2000;BME280;1001;48.87406500;9.59633600;2022-08-03T07:32:27;95278.63;;;28.95;43.18
2000;BME280;1001;48.87406500;9.59633600;2022-08-03T07:34:55;95272.47;;;28.70;43.29
2000;BME280;1001;48.87406500;9.59633600;2022-08-03T07:37:22;95275.38;;;28.77;43.40
2000;BME280;1001;48.87406500;9.59633600;2022-08-03T07:39:49;95270.34;;;28.76;42.72
2000;BME280;1001;48.87406500;9.59633600;2022-08-03T07:42:17;95264.03;;;28.96;43.21
2000;BME280;1001;48.87406500;9.59633600;2022-08-03T07:44:44;95269.22;;;28.89;42.25
2000;BME280;1001;48.87406500;9.59633600;2022-08-03T07:47:11;95274.00;;;29.08;41.76
2000;BME280;1001;48.87406500;9.59633600;2022-08-03T07:49:38;95279.91;;;29.25;41.83
2000;BME280;1001;48.87406500;9.59633600;2022-08-03T07:52:06;95275.34;;;29.41;41.46
2000;BME280;1001;48.87406500;9.59633600;2022-08-03T07:54:50;95280.88;;;29.60;41.17
2000;BME280;1001;48.87406500;9.59633600;2022-08-03T07:57:18;95280.53;;;29.34;39.97
2000;BME280;1001;48.87406500;9.59633600;2022-08-03T07:59:45;95275.91;;;29.62;39.82
2000;BME280;1001;48.87406500;9.59633600;2022-08-03T08:02:12;95287.66;;;29.54;38.51
2000;BME280;1001;48.87406500;9.59633600;2022-08-03T08:04:39;95280.22;;;29.36;39.94
2000;BME280;1001;48.87406500;9.59633600;2022-08-03T14:59:33;95128.31;;;34.04;29.47
2000;BME280;1001;48.87406500;9.59633600;2022-08-03T15:02:00;95129.13;;;34.08;29.76
2000;BME280;1001;48.87406500;9.59633600;2022-08-03T15:04:26;95124.94;;;34.21;29.52
2000;BME280;1001;48.87406500;9.59633600;2022-08-03T15:06:53;95118.03;;;34.31;30.22
2000;BME280;1001;48.87406500;9.59633600;2022-08-03T15:09:20;95109.44;;;34.29;30.16
2000;BME280;1001;48.87406500;9.59633600;2022-08-03T15:11:46;95113.50;;;34.56;30.29
2000;BME280;1001;48.87406500;9.59633600;2022-08-03T15:14:13;95115.13;;;34.71;29.55
2000;BME280;1001;48.87406500;9.59633600;2022-08-03T15:16:41;95108.09;;;34.02;29.64
2000;BME280;1001;48.87406500;9.59633600;2022-08-03T15:19:08;95102.81;;;34.19;29.77
2000;BME280;1001;48.87406500;9.59633600;2022-08-03T15:21:34;95103.59;;;34.20;29.57
2000;BME280;1001;48.87406500;9.59633600;2022-08-03T15:24:01;95105.38;;;34.56;29.19
2000;BME280;1001;48.87406500;9.59633600;2022-08-03T15:26:28;95101.97;;;34.84;28.18
2000;BME280;1001;48.87406500;9.59633600;2022-08-03T15:28:54;95102.69;;;34.67;29.13
2000;BME280;1001;48.87406500;9.59633600;2022-08-03T15:31:21;95104.44;;;35.24;27.79
2000;BME280;1001;48.87406500;9.59633600;2022-08-03T15:33:49;95108.75;;;35.46;28.34
2000;BME280;1001;48.87406500;9.59633600;2022-08-03T15:36:16;95109.19;;;35.70;27.99
2000;BME280;1001;48.87406500;9.59633600;2022-08-03T15:38:43;95099.09;;;35.56;28.64
2000;BME280;1001;48.87406500;9.59633600;2022-08-03T15:41:11;95098.22;;;35.17;28.70
2000;BME280;1001;48.87406500;9.59633600;2022-08-03T15:43:38;95097.91;;;35.68;27.88
2000;BME280;1001;48.87406500;9.59633600;2022-08-03T15:46:05;95089.28;;;35.20;30.24
2000;BME280;1001;48.87406500;9.59633600;2022-08-03T15:48:35;95101.78;;;35.67;29.53
2000;BME280;1001;48.87406500;9.59633600;2022-08-03T15:51:12;95095.97;;;35.65;29.03
2000;BME280;1001;48.87406500;9.59633600;2022-08-03T15:53:49;95104.91;;;36.00;27.40
2000;BME280;1001;48.87406500;9.59633600;2022-08-03T15:56:15;95097.53;;;36.01;27.53
2000;BME280;1001;48.87406500;9.59633600;2022-08-03T15:58:42;95102.97;;;36.15;27.30
2000;BME280;1001;48.87406500;9.59633600;2022-08-03T16:01:09;95101.41;;;35.82;27.44
2000;BME280;1001;48.87406500;9.59633600;2022-08-03T16:03:36;95098.28;;;35.80;27.41
2000;BME280;1001;48.87406500;9.59633600;2022-08-03T16:06:05;95083.53;;;35.92;26.94
2000;BME280;1001;48.87406500;9.59633600;2022-08-03T16:08:33;95100.13;;;36.61;26.91
2000;BME280;1001;48.87406500;9.59633600;2022-08-03T16:11:00;95088.16;;;35.88;27.27
2000;BME280;1001;48.87406500;9.59633600;2022-08-03T16:13:26;95089.66;;;36.56;26.68
2000;BME280;1001;48.87406500;9.59633600;2022-08-03T16:15:53;95093.88;;;36.67;26.15
2000;BME280;1001;48.87406500;9.59633600;2022-08-03T16:18:20;95085.31;;;36.72;26.71
2000;BME280;1001;48.87406500;9.59633600;2022-08-03T16:20:47;95087.78;;;36.17;26.51
2000;BME280;1001;48.87406500;9.59633600;2022-08-03T16:23:16;95081.56;;;36.17;26.57
2000;BME280;1001;48.87406500;9.59633600;2022-08-03T16:25:44;95084.53;;;36.68;26.39
2000;BME280;1001;48.87406500;9.59633600;2022-08-03T16:28:10;95083.84;;;36.36;26.69
2000;BME280;1001;48.87406500;9.59633600;2022-08-03T16:30:37;95083.50;;;35.81;27.08
2000;BME280;1001;48.87406500;9.59633600;2022-08-03T16:33:04;95079.22;;;35.41;27.20
2000;BME280;1001;48.87406500;9.59633600;2022-08-03T16:35:33;95078.84;;;35.71;27.08
2000;BME280;1001;48.87406500;9.59633600;2022-08-03T16:38:00;95072.22;;;35.90;27.87
2000;BME280;1001;48.87406500;9.59633600;2022-08-03T16:40:28;95068.97;;;36.65;26.67
2000;BME280;1001;48.87406500;9.59633600;2022-08-03T16:42:54;95078.78;;;36.31;26.18
2000;BME280;1001;48.87406500;9.59633600;2022-08-03T16:45:21;95068.38;;;35.70;27.10
2000;BME280;1001;48.87406500;9.59633600;2022-08-03T16:47:48;95073.72;;;35.10;27.70
2000;BME280;1001;48.87406500;9.59633600;2022-08-03T16:50:15;95066.75;;;35.33;27.31
2000;BME280;1001;48.87406500;9.59633600;2022-08-03T16:52:41;95064.44;;;35.42;27.45
2000;BME280;1001;48.87406500;9.59633600;2022-08-03T16:55:08;95067.16;;;35.46;27.44
2000;BME280;1001;48.87406500;9.59633600;2022-08-03T16:57:39;95067.97;;;35.53;27.34
2000;BME280;1001;48.87406500;9.59633600;2022-08-03T17:00:07;95054.44;;;34.43;26.57
2000;BME280;1001;48.87406500;9.59633600;2022-08-03T17:02:35;95056.88;;;33.97;28.20
2000;BME280;1001;48.87406500;9.59633600;2022-08-03T17:05:02;95055.38;;;33.52;28.17
2000;BME280;1001;48.87406500;9.59633600;2022-08-03T17:07:29;95055.19;;;33.31;28.04
2000;BME280;1001;48.87406500;9.59633600;2022-08-03T17:09:56;95046.25;;;32.86;27.85
2000;BME280;1001;48.87406500;9.59633600;2022-08-03T17:12:23;95046.75;;;32.62;28.19
2000;BME280;1001;48.87406500;9.59633600;2022-08-03T17:14:51;95050.72;;;32.42;30.96
2000;BME280;1001;48.87406500;9.59633600;2022-08-03T17:17:22;95052.53;;;32.31;31.45
2000;BME280;1001;48.87406500;9.59633600;2022-08-03T17:19:51;95046.97;;;32.20;31.84
2000;BME280;1001;48.87406500;9.59633600;2022-08-03T17:22:19;95057.34;;;32.15;31.57
2000;BME280;1001;48.87406500;9.59633600;2022-08-03T17:24:50;95051.53;;;31.87;32.49
2000;BME280;1001;48.87406500;9.59633600;2022-08-03T17:27:18;95054.44;;;31.75;32.18
2000;BME280;1001;48.87406500;9.59633600;2022-08-03T17:29:48;95051.75;;;31.78;32.56
2000;BME280;1001;48.87406500;9.59633600;2022-08-03T17:32:20;95049.59;;;31.61;32.80
2000;BME280;1001;48.87406500;9.59633600;2022-08-03T17:34:47;95053.06;;;31.61;32.39
2000;BME280;1001;48.87406500;9.59633600;2022-08-03T17:37:14;95053.50;;;31.64;32.34
2000;BME280;1001;48.87406500;9.59633600;2022-08-03T17:39:42;95058.16;;;31.67;33.11
2000;BME280;1001;48.87406500;9.59633600;2022-08-03T17:42:09;95053.38;;;31.56;32.44
2000;BME280;1001;48.87406500;9.59633600;2022-08-03T17:44:37;95052.63;;;31.59;32.14
2000;BME280;1001;48.87406500;9.59633600;2022-08-03T17:47:04;95057.16;;;31.52;32.50
2000;BME280;1001;48.87406500;9.59633600;2022-08-03T17:49:32;95056.13;;;31.37;32.49
2000;BME280;1001;48.87406500;9.59633600;2022-08-03T17:52:01;95050.13;;;31.25;32.96
2000;BME280;1001;48.87406500;9.59633600;2022-08-03T17:54:34;95055.47;;;31.21;33.17
2000;BME280;1001;48.87406500;9.59633600;2022-08-03T17:57:07;95055.59;;;31.06;33.71
2000;BME280;1001;48.87406500;9.59633600;2022-08-03T17:59:41;95057.38;;;30.98;34.15
2000;BME280;1001;48.87406500;9.59633600;2022-08-03T18:02:22;95052.53;;;30.88;34.12
2000;BME280;1001;48.87406500;9.59633600;2022-08-03T18:05:12;95058.13;;;30.76;33.85
2000;BME280;1001;48.87406500;9.59633600;2022-08-03T18:07:44;95059.19;;;30.52;34.59
2000;BME280;1001;48.87406500;9.59633600;2022-08-03T18:10:14;95064.47;;;30.45;34.75
2000;BME280;1001;48.87406500;9.59633600;2022-08-03T18:12:47;95068.84;;;30.34;34.63
2000;BME280;1001;48.87406500;9.59633600;2022-08-03T18:15:22;95064.06;;;30.27;35.01
2000;BME280;1001;48.87406500;9.59633600;2022-08-03T18:17:51;95073.91;;;30.20;35.29
2000;BME280;1001;48.87406500;9.59633600;2022-08-03T18:20:20;95063.59;;;30.06;35.51
2000;BME280;1001;48.87406500;9.59633600;2022-08-03T18:22:47;95073.44;;;29.99;36.09
2000;BME280;1001;48.87406500;9.59633600;2022-08-03T18:25:14;95066.19;;;29.84;35.73
2000;BME280;1001;48.87406500;9.59633600;2022-08-03T18:27:42;95068.00;;;29.80;36.08
2000;BME280;1001;48.87406500;9.59633600;2022-08-03T18:30:11;95064.63;;;29.67;36.21
2000;BME280;1001;48.87406500;9.59633600;2022-08-03T18:32:38;95061.78;;;29.60;36.14
2000;BME280;1001;48.87406500;9.59633600;2022-08-03T18:35:05;95062.81;;;29.40;36.07
2000;BME280;1001;48.87406500;9.59633600;2022-08-03T18:37:34;95067.25;;;29.32;36.28
2000;BME280;1001;48.87406500;9.59633600;2022-08-03T18:40:02;95074.50;;;29.16;36.02
2000;BME280;1001;48.87406500;9.59633600;2022-08-03T18:42:29;95071.03;;;29.00;36.14